Ada, MI

10:19 AM EDT on October 21, 2014 (GMT -0400)
Gerald R. Ford International | Change Station
CLOSE
Current Station
Airport
Location: Grand Rapids,
Elevation: 804 ft
Nearby Weather Stations

Elev 804 ft 42.88 °N, 85.52 °W | Updated 26 minutes ago

Overcast
Overcast
48 °F
Feels Like 48 °F
N
8
Wind Variable Wind from North

Today
High -- | Low -- °F
--% Chance of Precip.
Yesterday
High -- | Low -- °F
Precip. -- in
8:02 AM 6:49 PM
Waning Crescent, 5% visible
Pressure 30.10 in
Visibility 10.0 miles
Clouds Scattered Clouds 800 ft
Mostly Cloudy 1400 ft
Overcast 2300 ft
Dew Point 45 °F
Humidity 89%
Rainfall 0.00 in
Snow Depth Not available.
UV 0 out of 12
Pollen 1.40 out of 12
Ozone Good
PM2.5 Good
Flu Activity Sporadic
METAR KGRR 211353Z 01007KT 10SM SCT008 BKN014 OVC023 09/07 A3008 RMK AO2 RAB04E17B40E52 SLP191 P0000 T00890072

More Conditions Fewer Conditions

Pressure 30.10 in
Visibility 10.0 miles
Clouds Scattered Clouds 800 ft
Mostly Cloudy 1400 ft
Overcast 2300 ft
Dew Point 45 °F
Humidity 89%
Rainfall 0.00 in
Snow Depth Not available.
UV 0 out of 12
Pollen 1.40 out of 12
Ozone Good
PM2.5 Good
Flu Activity Sporadic
METAR KGRR 211353Z 01007KT 10SM SCT008 BKN014 OVC023 09/07 A3008 RMK AO2 RAB04E17B40E52 SLP191 P0000 T00890072

More Conditions Fewer Conditions

10-Day Weather Forecast

Almanac

Astronomy

Oct. 21, 2014 Rise Set
Actual Time 8:02 AM EDT 6:49 PM EDT
Civil Twilight 7:33 AM EDT 7:18 PM EDT
Nautical Twilight 7:00 AM EDT 7:51 PM EDT
Astronomical Twilight 6:27 AM EDT 8:24 PM EDT
Moon 5:42 AM EDT 5:46 PM EDT
Length of Visible Light 11h 44m
Length of Day
10h 47m
Tomorrow will be 2m 45s shorter.
Waning Crescent, 5% of the Moon is Illuminated
Today
Waning Crescent
Oct 23
New
Oct 30
First Quarter
Nov 6
Full
Nov 14
Last Quarter

Today's Extremes

State Highs State Lows

Community

WunderPhotos

Upload Photos

1,763,671 photos uploaded!

Nearby

Air Quality

  Air Quality AQ Index Pollutant
Yesterday Good
PM2.5
Yesterday Good
OZONE
Current Good
PM2.5
Current Good
OZONE
Tuesday Good
PM2.5
Wednesday Good
PM2.5
Thursday Good
PM2.5
Friday Good
PM2.5
Saturday Good
PM2.5

Snow Depth

Station Depth Elevation
No new snow has been reported.

Earthquake Activity

City Distance Mag. Time & Date
No recent earthquake activity has been reported nearby.
Minimum magnitude displayed is 2.5.

Coastal Water Temperatures

Place Temperature
No Stations Reporting

Nearby Weather Stations